Portada
METAR-TAF:

METAR-TAF

Aeroports :

Aeroport Internacional del Caire

El Caire, Egipte

latitud: 30-08N, longitud: 031-24E, altitud: 64 m

Observació

L'informe es va fer fa 18 minuts, a les 11:00 UTC
Vent 8 kt del Oest/Nord-Oest
Temperatura 21°C
Humitat 43%
Pressió 1019 hPa
Visibilitat 10 km o més
Escasses núvols a una alçada de 2500 ft

METAR: HECA 071100Z 30008KT 9999 FEW025 21/08 Q1019 NOSIG

Hora: 13:18 (11:18 UTC)

Pronòstic

L'informe es va fer fa 6 hores i 18 minuts, a les 05:00 UTC
Pronòstic vàlid del 07 a les 06 UTC al 08 a les 12 UTC
Vent 9 kt del Nord/Nord-Oest
Visibilitat 10 km o més
Núvols disperses a una alçada de 2500 ft
Temporalment
l' 07 a les 06 UTC al 07 a les 08 UTC
Vent 3 kt amb direcció variable

TAF: HECA 070500Z 0706/0812 34009KT 9999 SCT025 TEMPO 0706/0708 VRB03KT 4000BR NSC

Observacions i pronòstics meteorològics de més de 4000 aeroports (METAR i TAF).

Les estacions disponibles són els punts grocs i vermells al mapa.

Posi el ratolí al punt desitjat per veure el nom de l'estació.

Feu clic per veure les observacions i els pronòstics meteorològics.

Per canviar el mapa: feu clic els botons verds amb una creu de color negre per apropar; al botó verd amb un guió per allunyar la imatge; o en les fletxes verdes per a mapes adjacents.


METAR-TAF: